sensor_id;sensor_type;location;lat;lon;timestamp;P1;durP1;ratioP1;P2;durP2;ratioP2
9166;SDS011;4618;48.818;9.088;2023-12-14T00:00:25;1.60;;;1.50;;
9166;SDS011;4618;48.818;9.088;2023-12-14T00:02:51;1.70;;;1.57;;
9166;SDS011;4618;48.818;9.088;2023-12-14T00:05:17;1.50;;;1.40;;
9166;SDS011;4618;48.818;9.088;2023-12-14T00:07:42;2.53;;;1.47;;
9166;SDS011;4618;48.818;9.088;2023-12-14T00:10:08;2.13;;;1.40;;
9166;SDS011;4618;48.818;9.088;2023-12-14T00:12:33;2.87;;;1.40;;
9166;SDS011;4618;48.818;9.088;2023-12-14T00:14:59;2.77;;;1.30;;
9166;SDS011;4618;48.818;9.088;2023-12-14T00:17:24;1.87;;;1.30;;
9166;SDS011;4618;48.818;9.088;2023-12-14T00:19:50;1.33;;;1.20;;
9166;SDS011;4618;48.818;9.088;2023-12-14T00:22:16;2.30;;;1.40;;
9166;SDS011;4618;48.818;9.088;2023-12-14T00:24:41;2.33;;;1.33;;
9166;SDS011;4618;48.818;9.088;2023-12-14T00:27:07;1.47;;;1.30;;
9166;SDS011;4618;48.818;9.088;2023-12-14T00:29:33;1.47;;;1.30;;
9166;SDS011;4618;48.818;9.088;2023-12-14T00:31:58;1.63;;;1.50;;
9166;SDS011;4618;48.818;9.088;2023-12-14T00:34:24;1.43;;;1.33;;
9166;SDS011;4618;48.818;9.088;2023-12-14T00:36:49;1.40;;;1.20;;
9166;SDS011;4618;48.818;9.088;2023-12-14T00:39:15;1.30;;;1.20;;
9166;SDS011;4618;48.818;9.088;2023-12-14T00:41:41;1.53;;;1.30;;
9166;SDS011;4618;48.818;9.088;2023-12-14T00:44:06;2.13;;;1.40;;
9166;SDS011;4618;48.818;9.088;2023-12-14T00:46:32;1.63;;;1.20;;
9166;SDS011;4618;48.818;9.088;2023-12-14T00:48:57;3.93;;;1.37;;
9166;SDS011;4618;48.818;9.088;2023-12-14T00:51:23;3.07;;;1.20;;
9166;SDS011;4618;48.818;9.088;2023-12-14T00:53:48;2.07;;;1.30;;
9166;SDS011;4618;48.818;9.088;2023-12-14T00:56:14;2.20;;;1.50;;
9166;SDS011;4618;48.818;9.088;2023-12-14T00:58:40;1.53;;;1.43;;
9166;SDS011;4618;48.818;9.088;2023-12-14T01:01:05;2.73;;;1.30;;
9166;SDS011;4618;48.818;9.088;2023-12-14T01:03:31;1.90;;;1.70;;
9166;SDS011;4618;48.818;9.088;2023-12-14T01:05:57;2.57;;;1.07;;
9166;SDS011;4618;48.818;9.088;2023-12-14T01:08:23;1.37;;;1.17;;
9166;SDS011;4618;48.818;9.088;2023-12-14T01:10:48;2.73;;;1.60;;
9166;SDS011;4618;48.818;9.088;2023-12-14T01:13:14;1.57;;;1.20;;
9166;SDS011;4618;48.818;9.088;2023-12-14T01:15:39;1.57;;;1.40;;
9166;SDS011;4618;48.818;9.088;2023-12-14T01:18:05;1.43;;;1.10;;
9166;SDS011;4618;48.818;9.088;2023-12-14T01:20:30;1.40;;;1.10;;
9166;SDS011;4618;48.818;9.088;2023-12-14T01:22:56;1.27;;;1.10;;
9166;SDS011;4618;48.818;9.088;2023-12-14T01:25:22;2.00;;;1.37;;
9166;SDS011;4618;48.818;9.088;2023-12-14T01:27:47;1.80;;;1.40;;
9166;SDS011;4618;48.818;9.088;2023-12-14T01:30:13;2.27;;;1.03;;
9166;SDS011;4618;48.818;9.088;2023-12-14T01:32:38;3.70;;;1.00;;
9166;SDS011;4618;48.818;9.088;2023-12-14T01:35:04;1.20;;;1.00;;
9166;SDS011;4618;48.818;9.088;2023-12-14T01:37:30;1.67;;;1.00;;
9166;SDS011;4618;48.818;9.088;2023-12-14T01:39:55;2.37;;;1.10;;
9166;SDS011;4618;48.818;9.088;2023-12-14T01:42:21;1.53;;;1.00;;
9166;SDS011;4618;48.818;9.088;2023-12-14T01:44:46;1.80;;;1.13;;
9166;SDS011;4618;48.818;9.088;2023-12-14T01:47:12;3.03;;;0.90;;
9166;SDS011;4618;48.818;9.088;2023-12-14T01:49:37;2.47;;;1.10;;
9166;SDS011;4618;48.818;9.088;2023-12-14T01:52:04;1.97;;;0.97;;
9166;SDS011;4618;48.818;9.088;2023-12-14T01:54:30;2.60;;;1.27;;
9166;SDS011;4618;48.818;9.088;2023-12-14T01:56:56;1.10;;;0.93;;
9166;SDS011;4618;48.818;9.088;2023-12-14T01:59:21;1.97;;;1.07;;
9166;SDS011;4618;48.818;9.088;2023-12-14T02:01:51;1.03;;;1.00;;
9166;SDS011;4618;48.818;9.088;2023-12-14T02:04:18;1.63;;;1.20;;
9166;SDS011;4618;48.818;9.088;2023-12-14T02:06:43;1.43;;;1.27;;
9166;SDS011;4618;48.818;9.088;2023-12-14T02:09:09;2.27;;;1.20;;
9166;SDS011;4618;48.818;9.088;2023-12-14T02:11:35;2.57;;;1.20;;
9166;SDS011;4618;48.818;9.088;2023-12-14T02:14:05;3.20;;;1.10;;
9166;SDS011;4618;48.818;9.088;2023-12-14T02:16:31;1.33;;;1.10;;
9166;SDS011;4618;48.818;9.088;2023-12-14T02:18:57;1.60;;;1.20;;
9166;SDS011;4618;48.818;9.088;2023-12-14T02:21:22;2.83;;;1.27;;
9166;SDS011;4618;48.818;9.088;2023-12-14T02:23:48;1.00;;;1.00;;
9166;SDS011;4618;48.818;9.088;2023-12-14T02:26:13;3.20;;;1.13;;
9166;SDS011;4618;48.818;9.088;2023-12-14T02:28:39;1.17;;;0.90;;
9166;SDS011;4618;48.818;9.088;2023-12-14T02:31:05;1.70;;;1.03;;
9166;SDS011;4618;48.818;9.088;2023-12-14T02:33:37;2.23;;;1.00;;
9166;SDS011;4618;48.818;9.088;2023-12-14T02:36:03;0.97;;;0.90;;
9166;SDS011;4618;48.818;9.088;2023-12-14T02:38:29;1.67;;;0.80;;
9166;SDS011;4618;48.818;9.088;2023-12-14T02:40:55;0.67;;;0.67;;
9166;SDS011;4618;48.818;9.088;2023-12-14T02:43:20;0.93;;;0.70;;
9166;SDS011;4618;48.818;9.088;2023-12-14T02:45:48;1.07;;;0.70;;
9166;SDS011;4618;48.818;9.088;2023-12-14T02:48:14;0.93;;;0.90;;
9166;SDS011;4618;48.818;9.088;2023-12-14T02:50:39;2.40;;;1.23;;
9166;SDS011;4618;48.818;9.088;2023-12-14T02:53:05;1.37;;;1.00;;
9166;SDS011;4618;48.818;9.088;2023-12-14T02:55:30;1.97;;;0.80;;
9166;SDS011;4618;48.818;9.088;2023-12-14T02:57:56;1.37;;;0.80;;
9166;SDS011;4618;48.818;9.088;2023-12-14T03:00:22;1.20;;;0.80;;
9166;SDS011;4618;48.818;9.088;2023-12-14T03:02:47;1.17;;;0.80;;
9166;SDS011;4618;48.818;9.088;2023-12-14T03:05:13;1.47;;;0.60;;
9166;SDS011;4618;48.818;9.088;2023-12-14T03:07:38;1.03;;;0.90;;
9166;SDS011;4618;48.818;9.088;2023-12-14T03:10:04;0.80;;;0.80;;
9166;SDS011;4618;48.818;9.088;2023-12-14T03:12:30;1.67;;;1.30;;
9166;SDS011;4618;48.818;9.088;2023-12-14T03:14:56;1.33;;;1.00;;
9166;SDS011;4618;48.818;9.088;2023-12-14T03:17:21;2.13;;;1.30;;
9166;SDS011;4618;48.818;9.088;2023-12-14T03:19:47;1.93;;;1.10;;
9166;SDS011;4618;48.818;9.088;2023-12-14T03:22:12;2.00;;;1.10;;
9166;SDS011;4618;48.818;9.088;2023-12-14T03:24:38;2.20;;;1.33;;
9166;SDS011;4618;48.818;9.088;2023-12-14T03:27:04;5.37;;;1.50;;
9166;SDS011;4618;48.818;9.088;2023-12-14T03:29:29;1.90;;;1.40;;
9166;SDS011;4618;48.818;9.088;2023-12-14T03:31:55;2.30;;;1.40;;
9166;SDS011;4618;48.818;9.088;2023-12-14T03:34:21;3.03;;;1.67;;
9166;SDS011;4618;48.818;9.088;2023-12-14T03:36:47;1.50;;;1.40;;
9166;SDS011;4618;48.818;9.088;2023-12-14T03:39:13;2.13;;;1.63;;
9166;SDS011;4618;48.818;9.088;2023-12-14T03:41:38;1.80;;;1.63;;
9166;SDS011;4618;48.818;9.088;2023-12-14T03:44:04;2.23;;;1.67;;
9166;SDS011;4618;48.818;9.088;2023-12-14T03:46:29;3.23;;;1.67;;
9166;SDS011;4618;48.818;9.088;2023-12-14T03:48:55;1.50;;;1.40;;
9166;SDS011;4618;48.818;9.088;2023-12-14T03:51:21;1.60;;;1.50;;
9166;SDS011;4618;48.818;9.088;2023-12-14T03:53:46;1.60;;;1.47;;
9166;SDS011;4618;48.818;9.088;2023-12-14T03:56:12;2.40;;;1.50;;
9166;SDS011;4618;48.818;9.088;2023-12-14T03:58:37;1.67;;;1.17;;
9166;SDS011;4618;48.818;9.088;2023-12-14T04:01:03;1.33;;;1.23;;
9166;SDS011;4618;48.818;9.088;2023-12-14T04:03:29;2.03;;;1.40;;
9166;SDS011;4618;48.818;9.088;2023-12-14T04:05:55;3.20;;;1.40;;
9166;SDS011;4618;48.818;9.088;2023-12-14T04:08:20;3.07;;;1.30;;
9166;SDS011;4618;48.818;9.088;2023-12-14T04:10:46;1.93;;;1.60;;
9166;SDS011;4618;48.818;9.088;2023-12-14T04:13:11;2.00;;;1.50;;
9166;SDS011;4618;48.818;9.088;2023-12-14T04:15:37;3.37;;;1.63;;
9166;SDS011;4618;48.818;9.088;2023-12-14T04:18:02;4.00;;;2.00;;
9166;SDS011;4618;48.818;9.088;2023-12-14T04:20:28;6.17;;;2.20;;
9166;SDS011;4618;48.818;9.088;2023-12-14T04:22:54;2.00;;;1.90;;
9166;SDS011;4618;48.818;9.088;2023-12-14T04:25:20;2.50;;;2.10;;
9166;SDS011;4618;48.818;9.088;2023-12-14T04:27:45;1.97;;;1.80;;
9166;SDS011;4618;48.818;9.088;2023-12-14T04:30:11;4.40;;;1.90;;
9166;SDS011;4618;48.818;9.088;2023-12-14T04:32:37;2.77;;;1.87;;
9166;SDS011;4618;48.818;9.088;2023-12-14T04:35:03;2.00;;;1.90;;
9166;SDS011;4618;48.818;9.088;2023-12-14T04:37:29;1.87;;;1.77;;
9166;SDS011;4618;48.818;9.088;2023-12-14T04:39:56;2.97;;;1.90;;
9166;SDS011;4618;48.818;9.088;2023-12-14T04:42:24;2.50;;;2.00;;
9166;SDS011;4618;48.818;9.088;2023-12-14T04:44:50;3.50;;;1.90;;
9166;SDS011;4618;48.818;9.088;2023-12-14T04:47:15;1.90;;;1.80;;
9166;SDS011;4618;48.818;9.088;2023-12-14T04:49:41;2.07;;;1.87;;
9166;SDS011;4618;48.818;9.088;2023-12-14T04:52:06;2.33;;;1.73;;
9166;SDS011;4618;48.818;9.088;2023-12-14T04:54:32;1.93;;;1.83;;
9166;SDS011;4618;48.818;9.088;2023-12-14T04:57:00;2.93;;;1.33;;
9166;SDS011;4618;48.818;9.088;2023-12-14T04:59:26;2.93;;;1.60;;
9166;SDS011;4618;48.818;9.088;2023-12-14T05:01:51;2.17;;;1.60;;
9166;SDS011;4618;48.818;9.088;2023-12-14T05:04:17;2.87;;;1.90;;
9166;SDS011;4618;48.818;9.088;2023-12-14T05:06:42;2.37;;;1.90;;
9166;SDS011;4618;48.818;9.088;2023-12-14T05:09:08;2.20;;;2.00;;
9166;SDS011;4618;48.818;9.088;2023-12-14T05:11:33;2.47;;;2.10;;
9166;SDS011;4618;48.818;9.088;2023-12-14T05:13:59;1.97;;;1.77;;
9166;SDS011;4618;48.818;9.088;2023-12-14T05:16:24;3.40;;;2.37;;
9166;SDS011;4618;48.818;9.088;2023-12-14T05:18:53;2.40;;;2.20;;
9166;SDS011;4618;48.818;9.088;2023-12-14T05:21:19;2.77;;;2.53;;
9166;SDS011;4618;48.818;9.088;2023-12-14T05:23:44;2.60;;;2.40;;
9166;SDS011;4618;48.818;9.088;2023-12-14T05:26:10;3.10;;;2.90;;
9166;SDS011;4618;48.818;9.088;2023-12-14T05:28:36;2.97;;;2.63;;
9166;SDS011;4618;48.818;9.088;2023-12-14T05:31:01;3.40;;;3.07;;
9166;SDS011;4618;48.818;9.088;2023-12-14T05:33:27;3.63;;;3.20;;
9166;SDS011;4618;48.818;9.088;2023-12-14T05:35:53;3.57;;;3.10;;
9166;SDS011;4618;48.818;9.088;2023-12-14T05:38:19;4.40;;;2.73;;
9166;SDS011;4618;48.818;9.088;2023-12-14T05:40:44;3.50;;;3.17;;
9166;SDS011;4618;48.818;9.088;2023-12-14T05:43:10;4.73;;;3.73;;
9166;SDS011;4618;48.818;9.088;2023-12-14T05:45:36;3.97;;;3.17;;
9166;SDS011;4618;48.818;9.088;2023-12-14T05:48:02;4.47;;;3.50;;
9166;SDS011;4618;48.818;9.088;2023-12-14T05:50:30;5.87;;;4.03;;
9166;SDS011;4618;48.818;9.088;2023-12-14T05:52:56;5.77;;;3.80;;
9166;SDS011;4618;48.818;9.088;2023-12-14T05:55:21;5.33;;;3.87;;
9166;SDS011;4618;48.818;9.088;2023-12-14T05:57:47;4.97;;;3.90;;
9166;SDS011;4618;48.818;9.088;2023-12-14T06:00:13;4.50;;;3.93;;
9166;SDS011;4618;48.818;9.088;2023-12-14T06:02:39;6.47;;;4.00;;
9166;SDS011;4618;48.818;9.088;2023-12-14T06:05:06;4.77;;;4.13;;
9166;SDS011;4618;48.818;9.088;2023-12-14T06:07:32;6.80;;;4.67;;
9166;SDS011;4618;48.818;9.088;2023-12-14T06:09:58;5.37;;;4.87;;
9166;SDS011;4618;48.818;9.088;2023-12-14T06:12:23;4.50;;;4.10;;
9166;SDS011;4618;48.818;9.088;2023-12-14T06:14:49;6.37;;;4.77;;
9166;SDS011;4618;48.818;9.088;2023-12-14T06:17:15;7.13;;;5.33;;
9166;SDS011;4618;48.818;9.088;2023-12-14T06:19:41;5.20;;;4.70;;
9166;SDS011;4618;48.818;9.088;2023-12-14T06:22:07;7.30;;;5.37;;
9166;SDS011;4618;48.818;9.088;2023-12-14T06:24:32;7.07;;;4.33;;
9166;SDS011;4618;48.818;9.088;2023-12-14T06:26:58;7.87;;;4.87;;
9166;SDS011;4618;48.818;9.088;2023-12-14T06:29:23;6.67;;;4.90;;
9166;SDS011;4618;48.818;9.088;2023-12-14T06:31:49;7.30;;;5.37;;
9166;SDS011;4618;48.818;9.088;2023-12-14T06:34:16;6.97;;;5.43;;
9166;SDS011;4618;48.818;9.088;2023-12-14T06:36:42;8.47;;;5.37;;
9166;SDS011;4618;48.818;9.088;2023-12-14T06:39:09;7.27;;;5.17;;
9166;SDS011;4618;48.818;9.088;2023-12-14T06:41:35;7.13;;;5.10;;
9166;SDS011;4618;48.818;9.088;2023-12-14T06:44:01;6.10;;;4.90;;
9166;SDS011;4618;48.818;9.088;2023-12-14T06:46:27;7.50;;;4.83;;
9166;SDS011;4618;48.818;9.088;2023-12-14T06:48:52;7.97;;;5.13;;
9166;SDS011;4618;48.818;9.088;2023-12-14T06:51:19;5.70;;;5.20;;
9166;SDS011;4618;48.818;9.088;2023-12-14T06:53:44;5.77;;;5.17;;
9166;SDS011;4618;48.818;9.088;2023-12-14T06:56:11;8.53;;;5.57;;
9166;SDS011;4618;48.818;9.088;2023-12-14T06:58:40;7.23;;;5.40;;
9166;SDS011;4618;48.818;9.088;2023-12-14T07:01:07;6.17;;;5.50;;
9166;SDS011;4618;48.818;9.088;2023-12-14T07:03:33;6.27;;;5.20;;
9166;SDS011;4618;48.818;9.088;2023-12-14T07:05:58;5.30;;;4.80;;
9166;SDS011;4618;48.818;9.088;2023-12-14T07:08:24;5.90;;;5.40;;
9166;SDS011;4618;48.818;9.088;2023-12-14T07:10:50;5.93;;;5.33;;
9166;SDS011;4618;48.818;9.088;2023-12-14T07:13:15;7.97;;;5.33;;
9166;SDS011;4618;48.818;9.088;2023-12-14T07:15:41;5.70;;;5.13;;
9166;SDS011;4618;48.818;9.088;2023-12-14T07:18:07;8.00;;;6.00;;
9166;SDS011;4618;48.818;9.088;2023-12-14T07:20:32;5.80;;;5.20;;
9166;SDS011;4618;48.818;9.088;2023-12-14T07:22:58;6.50;;;5.90;;
9166;SDS011;4618;48.818;9.088;2023-12-14T07:25:23;5.90;;;5.23;;
9166;SDS011;4618;48.818;9.088;2023-12-14T07:27:49;6.13;;;5.53;;
9166;SDS011;4618;48.818;9.088;2023-12-14T07:30:15;6.03;;;5.43;;
9166;SDS011;4618;48.818;9.088;2023-12-14T07:32:41;5.73;;;5.23;;
9166;SDS011;4618;48.818;9.088;2023-12-14T07:35:07;6.10;;;5.50;;
9166;SDS011;4618;48.818;9.088;2023-12-14T07:37:33;6.03;;;5.43;;
9166;SDS011;4618;48.818;9.088;2023-12-14T07:39:59;5.80;;;5.27;;
9166;SDS011;4618;48.818;9.088;2023-12-14T07:42:24;5.87;;;5.33;;
9166;SDS011;4618;48.818;9.088;2023-12-14T07:44:50;6.70;;;5.70;;
9166;SDS011;4618;48.818;9.088;2023-12-14T07:47:16;7.70;;;5.83;;
9166;SDS011;4618;48.818;9.088;2023-12-14T07:49:42;7.23;;;6.43;;
9166;SDS011;4618;48.818;9.088;2023-12-14T07:52:08;6.60;;;6.00;;
9166;SDS011;4618;48.818;9.088;2023-12-14T07:54:34;7.30;;;6.70;;
9166;SDS011;4618;48.818;9.088;2023-12-14T07:57:00;9.57;;;8.43;;
9166;SDS011;4618;48.818;9.088;2023-12-14T07:59:26;9.33;;;8.00;;
9166;SDS011;4618;48.818;9.088;2023-12-14T08:01:52;8.70;;;7.80;;
9166;SDS011;4618;48.818;9.088;2023-12-14T08:04:17;8.43;;;7.53;;
9166;SDS011;4618;48.818;9.088;2023-12-14T08:06:43;10.13;;;7.60;;
9166;SDS011;4618;48.818;9.088;2023-12-14T08:09:08;9.80;;;8.80;;
9166;SDS011;4618;48.818;9.088;2023-12-14T08:11:34;10.63;;;9.43;;
9166;SDS011;4618;48.818;9.088;2023-12-14T08:14:00;12.00;;;10.77;;
9166;SDS011;4618;48.818;9.088;2023-12-14T08:16:26;11.77;;;9.97;;
9166;SDS011;4618;48.818;9.088;2023-12-14T08:18:52;12.17;;;10.10;;
9166;SDS011;4618;48.818;9.088;2023-12-14T08:21:17;11.13;;;10.00;;
9166;SDS011;4618;48.818;9.088;2023-12-14T08:23:43;10.83;;;9.50;;
9166;SDS011;4618;48.818;9.088;2023-12-14T08:26:09;11.30;;;10.17;;
9166;SDS011;4618;48.818;9.088;2023-12-14T08:28:37;12.20;;;10.67;;
9166;SDS011;4618;48.818;9.088;2023-12-14T08:31:04;12.97;;;11.63;;
9166;SDS011;4618;48.818;9.088;2023-12-14T08:33:29;13.80;;;12.40;;
9166;SDS011;4618;48.818;9.088;2023-12-14T08:35:55;15.57;;;12.60;;
9166;SDS011;4618;48.818;9.088;2023-12-14T08:38:21;14.43;;;12.93;;
9166;SDS011;4618;48.818;9.088;2023-12-14T08:40:47;13.57;;;12.10;;
9166;SDS011;4618;48.818;9.088;2023-12-14T08:43:13;12.77;;;11.47;;
9166;SDS011;4618;48.818;9.088;2023-12-14T08:45:39;11.53;;;10.37;;
9166;SDS011;4618;48.818;9.088;2023-12-14T08:48:04;10.80;;;9.70;;
9166;SDS011;4618;48.818;9.088;2023-12-14T08:50:30;9.37;;;8.33;;
9166;SDS011;4618;48.818;9.088;2023-12-14T08:52:56;9.37;;;8.37;;
9166;SDS011;4618;48.818;9.088;2023-12-14T08:55:23;10.07;;;8.70;;
9166;SDS011;4618;48.818;9.088;2023-12-14T08:57:49;8.77;;;7.77;;
9166;SDS011;4618;48.818;9.088;2023-12-14T09:00:15;9.67;;;8.77;;
9166;SDS011;4618;48.818;9.088;2023-12-14T09:02:42;9.97;;;8.87;;
9166;SDS011;4618;48.818;9.088;2023-12-14T09:05:09;10.07;;;9.10;;
9166;SDS011;4618;48.818;9.088;2023-12-14T09:07:34;10.87;;;9.17;;
9166;SDS011;4618;48.818;9.088;2023-12-14T09:10:00;10.07;;;8.97;;
9166;SDS011;4618;48.818;9.088;2023-12-14T09:12:25;11.30;;;8.77;;
9166;SDS011;4618;48.818;9.088;2023-12-14T09:14:51;10.77;;;9.33;;
9166;SDS011;4618;48.818;9.088;2023-12-14T09:17:16;10.43;;;8.83;;
9166;SDS011;4618;48.818;9.088;2023-12-14T09:19:43;11.70;;;9.00;;
9166;SDS011;4618;48.818;9.088;2023-12-14T09:22:08;12.03;;;9.80;;
9166;SDS011;4618;48.818;9.088;2023-12-14T09:24:34;10.87;;;9.57;;
9166;SDS011;4618;48.818;9.088;2023-12-14T09:27:00;12.73;;;9.70;;
9166;SDS011;4618;48.818;9.088;2023-12-14T09:29:25;10.27;;;8.93;;
9166;SDS011;4618;48.818;9.088;2023-12-14T09:31:51;10.60;;;9.50;;
9166;SDS011;4618;48.818;9.088;2023-12-14T09:34:16;10.27;;;9.17;;
9166;SDS011;4618;48.818;9.088;2023-12-14T09:36:42;10.90;;;9.60;;
9166;SDS011;4618;48.818;9.088;2023-12-14T09:39:08;11.97;;;10.27;;
9166;SDS011;4618;48.818;9.088;2023-12-14T09:41:36;13.93;;;11.77;;
9166;SDS011;4618;48.818;9.088;2023-12-14T09:44:03;15.13;;;11.20;;
9166;SDS011;4618;48.818;9.088;2023-12-14T09:46:30;11.87;;;10.67;;
9166;SDS011;4618;48.818;9.088;2023-12-14T09:48:57;13.47;;;12.00;;
9166;SDS011;4618;48.818;9.088;2023-12-14T09:51:24;14.63;;;11.87;;
9166;SDS011;4618;48.818;9.088;2023-12-14T09:53:51;15.00;;;11.17;;
9166;SDS011;4618;48.818;9.088;2023-12-14T09:56:22;12.13;;;10.50;;
9166;SDS011;4618;48.818;9.088;2023-12-14T09:58:49;12.00;;;10.77;;
9166;SDS011;4618;48.818;9.088;2023-12-14T10:01:24;13.33;;;11.30;;
9166;SDS011;4618;48.818;9.088;2023-12-14T10:04:13;14.07;;;11.23;;
9166;SDS011;4618;48.818;9.088;2023-12-14T10:06:42;13.87;;;11.97;;
9166;SDS011;4618;48.818;9.088;2023-12-14T10:09:10;13.73;;;11.10;;
9166;SDS011;4618;48.818;9.088;2023-12-14T10:11:38;12.07;;;9.63;;
9166;SDS011;4618;48.818;9.088;2023-12-14T10:14:21;12.20;;;10.80;;
9166;SDS011;4618;48.818;9.088;2023-12-14T10:16:49;9.23;;;8.30;;
9166;SDS011;4618;48.818;9.088;2023-12-14T10:19:16;9.70;;;8.63;;
9166;SDS011;4618;48.818;9.088;2023-12-14T10:21:42;9.80;;;8.43;;
9166;SDS011;4618;48.818;9.088;2023-12-14T10:24:08;9.77;;;8.77;;
9166;SDS011;4618;48.818;9.088;2023-12-14T10:26:34;8.23;;;7.53;;
9166;SDS011;4618;48.818;9.088;2023-12-14T10:29:00;9.33;;;8.10;;
9166;SDS011;4618;48.818;9.088;2023-12-14T10:31:29;9.23;;;7.83;;
9166;SDS011;4618;48.818;9.088;2023-12-14T10:33:55;7.53;;;6.70;;
9166;SDS011;4618;48.818;9.088;2023-12-14T10:36:21;8.53;;;6.83;;
9166;SDS011;4618;48.818;9.088;2023-12-14T10:38:52;8.87;;;6.97;;
9166;SDS011;4618;48.818;9.088;2023-12-14T10:41:18;9.83;;;7.73;;
9166;SDS011;4618;48.818;9.088;2023-12-14T10:43:48;8.97;;;7.63;;
9166;SDS011;4618;48.818;9.088;2023-12-14T10:46:18;11.10;;;8.37;;
9166;SDS011;4618;48.818;9.088;2023-12-14T10:48:45;9.77;;;8.10;;
9166;SDS011;4618;48.818;9.088;2023-12-14T10:51:14;9.27;;;8.33;;
9166;SDS011;4618;48.818;9.088;2023-12-14T10:53:42;12.07;;;8.30;;
9166;SDS011;4618;48.818;9.088;2023-12-14T10:56:12;9.50;;;8.50;;
9166;SDS011;4618;48.818;9.088;2023-12-14T10:58:48;9.07;;;7.47;;
9166;SDS011;4618;48.818;9.088;2023-12-14T11:01:21;10.80;;;7.33;;
9166;SDS011;4618;48.818;9.088;2023-12-14T11:03:49;9.30;;;7.17;;
9166;SDS011;4618;48.818;9.088;2023-12-14T11:06:28;8.10;;;7.07;;
9166;SDS011;4618;48.818;9.088;2023-12-14T11:09:39;7.43;;;6.67;;
9166;SDS011;4618;48.818;9.088;2023-12-14T11:14:22;6.40;;;5.80;;
9166;SDS011;4618;48.818;9.088;2023-12-14T11:16:49;5.50;;;5.00;;
9166;SDS011;4618;48.818;9.088;2023-12-14T11:21:48;6.90;;;5.80;;
9166;SDS011;4618;48.818;9.088;2023-12-14T11:24:37;6.63;;;5.20;;
9166;SDS011;4618;48.818;9.088;2023-12-14T11:27:07;7.33;;;5.43;;
9166;SDS011;4618;48.818;9.088;2023-12-14T11:29:32;5.80;;;5.30;;
9166;SDS011;4618;48.818;9.088;2023-12-14T11:32:00;6.57;;;5.93;;
9166;SDS011;4618;48.818;9.088;2023-12-14T11:34:26;6.57;;;3.87;;
9166;SDS011;4618;48.818;9.088;2023-12-14T11:36:52;4.87;;;4.37;;
9166;SDS011;4618;48.818;9.088;2023-12-14T11:39:19;7.87;;;4.70;;
9166;SDS011;4618;48.818;9.088;2023-12-14T11:42:02;3.83;;;3.43;;
9166;SDS011;4618;48.818;9.088;2023-12-14T11:44:28;3.63;;;2.40;;
9166;SDS011;4618;48.818;9.088;2023-12-14T11:46:55;1.70;;;1.60;;
9166;SDS011;4618;48.818;9.088;2023-12-14T11:49:23;2.07;;;1.90;;
9166;SDS011;4618;48.818;9.088;2023-12-14T11:51:51;4.07;;;1.63;;
9166;SDS011;4618;48.818;9.088;2023-12-14T11:54:18;2.63;;;1.67;;
9166;SDS011;4618;48.818;9.088;2023-12-14T11:56:48;1.70;;;1.57;;
9166;SDS011;4618;48.818;9.088;2023-12-14T11:59:15;1.80;;;1.70;;
9166;SDS011;4618;48.818;9.088;2023-12-14T12:01:53;2.17;;;1.63;;
9166;SDS011;4618;48.818;9.088;2023-12-14T12:04:27;2.77;;;1.93;;
9166;SDS011;4618;48.818;9.088;2023-12-14T12:07:03;1.93;;;1.73;;
9166;SDS011;4618;48.818;9.088;2023-12-14T12:09:35;3.63;;;2.20;;
9166;SDS011;4618;48.818;9.088;2023-12-14T12:12:07;2.53;;;2.33;;
9166;SDS011;4618;48.818;9.088;2023-12-14T12:14:37;2.40;;;1.50;;
9166;SDS011;4618;48.818;9.088;2023-12-14T12:17:03;1.63;;;1.10;;
9166;SDS011;4618;48.818;9.088;2023-12-14T12:19:34;1.87;;;1.40;;
9166;SDS011;4618;48.818;9.088;2023-12-14T12:22:01;1.77;;;1.67;;
9166;SDS011;4618;48.818;9.088;2023-12-14T12:24:27;1.60;;;1.50;;
9166;SDS011;4618;48.818;9.088;2023-12-14T12:26:53;1.77;;;1.37;;
9166;SDS011;4618;48.818;9.088;2023-12-14T12:29:19;1.17;;;1.07;;
9166;SDS011;4618;48.818;9.088;2023-12-14T12:31:45;1.50;;;1.20;;
9166;SDS011;4618;48.818;9.088;2023-12-14T12:34:11;1.27;;;1.17;;
9166;SDS011;4618;48.818;9.088;2023-12-14T12:36:37;1.90;;;1.67;;
9166;SDS011;4618;48.818;9.088;2023-12-14T12:39:03;2.17;;;2.00;;
9166;SDS011;4618;48.818;9.088;2023-12-14T12:41:31;2.87;;;2.67;;
9166;SDS011;4618;48.818;9.088;2023-12-14T12:43:59;4.80;;;3.30;;
9166;SDS011;4618;48.818;9.088;2023-12-14T12:46:40;5.30;;;3.90;;
9166;SDS011;4618;48.818;9.088;2023-12-14T12:49:06;4.30;;;3.90;;
9166;SDS011;4618;48.818;9.088;2023-12-14T12:51:32;4.70;;;4.00;;
9166;SDS011;4618;48.818;9.088;2023-12-14T12:53:58;5.03;;;3.87;;
9166;SDS011;4618;48.818;9.088;2023-12-14T12:56:25;4.27;;;3.87;;
9166;SDS011;4618;48.818;9.088;2023-12-14T12:58:52;6.83;;;3.77;;
9166;SDS011;4618;48.818;9.088;2023-12-14T13:01:19;5.77;;;4.00;;
9166;SDS011;4618;48.818;9.088;2023-12-14T13:03:52;7.00;;;4.27;;
9166;SDS011;4618;48.818;9.088;2023-12-14T13:06:19;5.03;;;4.53;;
9166;SDS011;4618;48.818;9.088;2023-12-14T13:08:46;5.03;;;3.30;;
9166;SDS011;4618;48.818;9.088;2023-12-14T13:11:11;3.53;;;3.10;;
9166;SDS011;4618;48.818;9.088;2023-12-14T13:13:37;3.57;;;2.40;;
9166;SDS011;4618;48.818;9.088;2023-12-14T13:16:03;2.50;;;2.30;;
9166;SDS011;4618;48.818;9.088;2023-12-14T13:18:28;3.00;;;2.60;;
9166;SDS011;4618;48.818;9.088;2023-12-14T13:20:54;4.80;;;3.53;;
9166;SDS011;4618;48.818;9.088;2023-12-14T13:23:20;5.73;;;3.60;;
9166;SDS011;4618;48.818;9.088;2023-12-14T13:25:45;4.67;;;3.80;;
9166;SDS011;4618;48.818;9.088;2023-12-14T13:28:11;5.67;;;4.27;;
9166;SDS011;4618;48.818;9.088;2023-12-14T13:30:37;6.63;;;4.33;;
9166;SDS011;4618;48.818;9.088;2023-12-14T13:33:02;4.37;;;3.67;;
9166;SDS011;4618;48.818;9.088;2023-12-14T13:35:29;5.10;;;3.83;;
9166;SDS011;4618;48.818;9.088;2023-12-14T13:37:54;6.33;;;3.93;;
9166;SDS011;4618;48.818;9.088;2023-12-14T13:40:20;7.53;;;4.67;;
9166;SDS011;4618;48.818;9.088;2023-12-14T13:42:45;6.90;;;4.40;;
9166;SDS011;4618;48.818;9.088;2023-12-14T13:45:11;5.57;;;4.67;;
9166;SDS011;4618;48.818;9.088;2023-12-14T13:47:37;6.90;;;5.27;;
9166;SDS011;4618;48.818;9.088;2023-12-14T13:50:02;5.97;;;5.37;;
9166;SDS011;4618;48.818;9.088;2023-12-14T13:52:29;8.03;;;6.20;;
9166;SDS011;4618;48.818;9.088;2023-12-14T13:54:55;7.10;;;5.97;;
9166;SDS011;4618;48.818;9.088;2023-12-14T13:57:21;8.13;;;7.20;;
9166;SDS011;4618;48.818;9.088;2023-12-14T13:59:47;10.73;;;7.47;;
9166;SDS011;4618;48.818;9.088;2023-12-14T14:02:13;9.70;;;8.13;;
9166;SDS011;4618;48.818;9.088;2023-12-14T14:04:38;10.53;;;8.97;;
9166;SDS011;4618;48.818;9.088;2023-12-14T14:07:04;12.37;;;8.93;;
9166;SDS011;4618;48.818;9.088;2023-12-14T14:09:30;10.73;;;9.27;;
9166;SDS011;4618;48.818;9.088;2023-12-14T14:11:55;11.33;;;8.77;;
9166;SDS011;4618;48.818;9.088;2023-12-14T14:14:21;12.03;;;9.50;;
9166;SDS011;4618;48.818;9.088;2023-12-14T14:16:48;16.17;;;10.37;;
9166;SDS011;4618;48.818;9.088;2023-12-14T14:19:14;10.97;;;9.23;;
9166;SDS011;4618;48.818;9.088;2023-12-14T14:21:39;11.60;;;9.90;;
9166;SDS011;4618;48.818;9.088;2023-12-14T14:24:05;13.40;;;10.53;;
9166;SDS011;4618;48.818;9.088;2023-12-14T14:26:31;12.40;;;10.73;;
9166;SDS011;4618;48.818;9.088;2023-12-14T14:28:57;14.07;;;11.30;;
9166;SDS011;4618;48.818;9.088;2023-12-14T14:31:26;16.57;;;12.30;;
9166;SDS011;4618;48.818;9.088;2023-12-14T14:33:56;16.63;;;12.37;;
9166;SDS011;4618;48.818;9.088;2023-12-14T14:36:22;14.53;;;11.73;;
9166;SDS011;4618;48.818;9.088;2023-12-14T14:38:48;16.80;;;12.37;;
9166;SDS011;4618;48.818;9.088;2023-12-14T14:41:15;17.43;;;13.97;;
9166;SDS011;4618;48.818;9.088;2023-12-14T14:43:40;17.87;;;12.87;;
9166;SDS011;4618;48.818;9.088;2023-12-14T14:46:07;17.07;;;12.70;;
9166;SDS011;4618;48.818;9.088;2023-12-14T14:48:33;17.87;;;13.37;;
9166;SDS011;4618;48.818;9.088;2023-12-14T14:50:59;17.77;;;13.17;;
9166;SDS011;4618;48.818;9.088;2023-12-14T14:53:25;17.03;;;13.47;;
9166;SDS011;4618;48.818;9.088;2023-12-14T14:55:50;18.00;;;13.23;;
9166;SDS011;4618;48.818;9.088;2023-12-14T14:58:20;17.83;;;13.30;;
9166;SDS011;4618;48.818;9.088;2023-12-14T15:00:46;17.93;;;12.87;;
9166;SDS011;4618;48.818;9.088;2023-12-14T15:03:12;17.60;;;13.70;;
9166;SDS011;4618;48.818;9.088;2023-12-14T15:05:38;16.17;;;13.37;;
9166;SDS011;4618;48.818;9.088;2023-12-14T15:08:04;18.33;;;13.50;;
9166;SDS011;4618;48.818;9.088;2023-12-14T15:10:31;15.67;;;11.77;;